sensor_id;sensor_type;location;lat;lon;timestamp;P1;durP1;ratioP1;P2;durP2;ratioP2
49828;SDS011;35723;51.194;5.112;2022-12-18T00:00:28;70.00;;;26.95;;
49828;SDS011;35723;51.194;5.112;2022-12-18T00:02:55;70.22;;;26.50;;
49828;SDS011;35723;51.194;5.112;2022-12-18T00:11:05;71.43;;;26.08;;
49828;SDS011;35723;51.194;5.112;2022-12-18T00:13:37;73.95;;;25.95;;
49828;SDS011;35723;51.194;5.112;2022-12-18T00:18:51;74.28;;;27.38;;
49828;SDS011;35723;51.194;5.112;2022-12-18T00:21:19;72.65;;;26.33;;
49828;SDS011;35723;51.194;5.112;2022-12-18T00:23:48;71.93;;;26.88;;
49828;SDS011;35723;51.194;5.112;2022-12-18T00:29:01;76.15;;;26.73;;
49828;SDS011;35723;51.194;5.112;2022-12-18T00:31:29;74.53;;;26.92;;
49828;SDS011;35723;51.194;5.112;2022-12-18T00:33:56;68.15;;;25.35;;
49828;SDS011;35723;51.194;5.112;2022-12-18T00:39:08;66.43;;;25.77;;
49828;SDS011;35723;51.194;5.112;2022-12-18T00:41:35;65.72;;;25.33;;
49828;SDS011;35723;51.194;5.112;2022-12-18T00:44:19;70.88;;;25.33;;
49828;SDS011;35723;51.194;5.112;2022-12-18T00:46:44;67.00;;;26.25;;
49828;SDS011;35723;51.194;5.112;2022-12-18T00:49:11;67.68;;;24.92;;
49828;SDS011;35723;51.194;5.112;2022-12-18T00:51:37;74.95;;;28.60;;
49828;SDS011;35723;51.194;5.112;2022-12-18T00:54:02;70.80;;;26.63;;
49828;SDS011;35723;51.194;5.112;2022-12-18T00:56:28;73.07;;;26.67;;
49828;SDS011;35723;51.194;5.112;2022-12-18T00:58:54;67.20;;;26.42;;
49828;SDS011;35723;51.194;5.112;2022-12-18T01:01:19;71.53;;;26.98;;
49828;SDS011;35723;51.194;5.112;2022-12-18T01:03:45;72.47;;;27.00;;
49828;SDS011;35723;51.194;5.112;2022-12-18T01:06:12;69.43;;;25.55;;
49828;SDS011;35723;51.194;5.112;2022-12-18T01:08:38;70.57;;;24.83;;
49828;SDS011;35723;51.194;5.112;2022-12-18T01:11:08;69.00;;;26.33;;
49828;SDS011;35723;51.194;5.112;2022-12-18T01:13:38;67.55;;;25.63;;
49828;SDS011;35723;51.194;5.112;2022-12-18T01:16:04;67.22;;;26.73;;
49828;SDS011;35723;51.194;5.112;2022-12-18T01:18:30;65.10;;;25.35;;
49828;SDS011;35723;51.194;5.112;2022-12-18T01:20:56;64.18;;;23.70;;
49828;SDS011;35723;51.194;5.112;2022-12-18T01:23:21;66.20;;;25.15;;
49828;SDS011;35723;51.194;5.112;2022-12-18T01:25:47;65.15;;;25.17;;
49828;SDS011;35723;51.194;5.112;2022-12-18T01:28:13;64.38;;;25.33;;
49828;SDS011;35723;51.194;5.112;2022-12-18T01:30:38;70.63;;;25.88;;
49828;SDS011;35723;51.194;5.112;2022-12-18T01:33:04;62.17;;;23.30;;
49828;SDS011;35723;51.194;5.112;2022-12-18T01:35:30;65.35;;;24.60;;
49828;SDS011;35723;51.194;5.112;2022-12-18T01:37:56;65.30;;;23.67;;
49828;SDS011;35723;51.194;5.112;2022-12-18T01:40:22;63.20;;;24.25;;
49828;SDS011;35723;51.194;5.112;2022-12-18T01:42:51;60.85;;;24.33;;
49828;SDS011;35723;51.194;5.112;2022-12-18T01:47:48;61.78;;;23.52;;
49828;SDS011;35723;51.194;5.112;2022-12-18T01:50:18;59.80;;;22.25;;
49828;SDS011;35723;51.194;5.112;2022-12-18T01:55:35;62.33;;;23.55;;
49828;SDS011;35723;51.194;5.112;2022-12-18T01:58:10;59.28;;;22.77;;
49828;SDS011;35723;51.194;5.112;2022-12-18T02:00:36;64.07;;;24.10;;
49828;SDS011;35723;51.194;5.112;2022-12-18T02:03:01;58.33;;;23.13;;
49828;SDS011;35723;51.194;5.112;2022-12-18T02:08:31;57.78;;;22.42;;
49828;SDS011;35723;51.194;5.112;2022-12-18T02:17:03;57.20;;;21.63;;
49828;SDS011;35723;51.194;5.112;2022-12-18T02:24:59;55.63;;;21.17;;
49828;SDS011;35723;51.194;5.112;2022-12-18T02:27:32;55.00;;;21.40;;
49828;SDS011;35723;51.194;5.112;2022-12-18T02:30:00;55.58;;;20.63;;
49828;SDS011;35723;51.194;5.112;2022-12-18T02:32:30;58.72;;;22.10;;
49828;SDS011;35723;51.194;5.112;2022-12-18T02:34:59;58.83;;;21.55;;
49828;SDS011;35723;51.194;5.112;2022-12-18T02:37:27;56.45;;;21.38;;
49828;SDS011;35723;51.194;5.112;2022-12-18T02:39:55;53.53;;;20.13;;
49828;SDS011;35723;51.194;5.112;2022-12-18T02:42:23;58.13;;;21.60;;
49828;SDS011;35723;51.194;5.112;2022-12-18T02:44:50;59.47;;;21.00;;
49828;SDS011;35723;51.194;5.112;2022-12-18T02:47:17;58.63;;;23.08;;
49828;SDS011;35723;51.194;5.112;2022-12-18T02:55:18;55.42;;;20.67;;
49828;SDS011;35723;51.194;5.112;2022-12-18T02:58:18;59.15;;;20.92;;
49828;SDS011;35723;51.194;5.112;2022-12-18T03:00:51;52.10;;;20.63;;
49828;SDS011;35723;51.194;5.112;2022-12-18T03:03:25;58.17;;;21.15;;
49828;SDS011;35723;51.194;5.112;2022-12-18T03:06:06;55.03;;;20.23;;
49828;SDS011;35723;51.194;5.112;2022-12-18T03:08:38;57.28;;;21.35;;
49828;SDS011;35723;51.194;5.112;2022-12-18T03:11:08;52.17;;;20.95;;
49828;SDS011;35723;51.194;5.112;2022-12-18T03:13:46;57.30;;;21.83;;
49828;SDS011;35723;51.194;5.112;2022-12-18T03:16:23;58.88;;;21.45;;
49828;SDS011;35723;51.194;5.112;2022-12-18T03:18:56;59.05;;;21.42;;
49828;SDS011;35723;51.194;5.112;2022-12-18T03:21:24;59.58;;;21.75;;
49828;SDS011;35723;51.194;5.112;2022-12-18T03:23:58;59.40;;;21.70;;
49828;SDS011;35723;51.194;5.112;2022-12-18T03:26:25;57.17;;;20.67;;
49828;SDS011;35723;51.194;5.112;2022-12-18T03:28:53;57.13;;;22.23;;
49828;SDS011;35723;51.194;5.112;2022-12-18T03:31:23;62.10;;;21.38;;
49828;SDS011;35723;51.194;5.112;2022-12-18T03:33:54;60.15;;;20.70;;
49828;SDS011;35723;51.194;5.112;2022-12-18T03:36:22;57.05;;;21.40;;
49828;SDS011;35723;51.194;5.112;2022-12-18T03:38:49;58.88;;;21.25;;
49828;SDS011;35723;51.194;5.112;2022-12-18T03:41:17;56.42;;;20.85;;
49828;SDS011;35723;51.194;5.112;2022-12-18T03:43:55;52.33;;;21.17;;
49828;SDS011;35723;51.194;5.112;2022-12-18T03:47:01;54.22;;;20.10;;
49828;SDS011;35723;51.194;5.112;2022-12-18T03:49:30;51.35;;;20.13;;
49828;SDS011;35723;51.194;5.112;2022-12-18T03:54:37;55.33;;;19.80;;
49828;SDS011;35723;51.194;5.112;2022-12-18T03:57:13;56.97;;;20.63;;
49828;SDS011;35723;51.194;5.112;2022-12-18T03:59:55;51.08;;;20.13;;
49828;SDS011;35723;51.194;5.112;2022-12-18T04:02:24;49.83;;;19.58;;
49828;SDS011;35723;51.194;5.112;2022-12-18T04:04:53;54.45;;;21.98;;
49828;SDS011;35723;51.194;5.112;2022-12-18T04:07:24;54.28;;;19.77;;
49828;SDS011;35723;51.194;5.112;2022-12-18T04:09:50;47.97;;;19.20;;
49828;SDS011;35723;51.194;5.112;2022-12-18T04:12:20;55.10;;;20.58;;
49828;SDS011;35723;51.194;5.112;2022-12-18T04:14:48;54.80;;;19.65;;
49828;SDS011;35723;51.194;5.112;2022-12-18T04:17:14;53.75;;;19.95;;
49828;SDS011;35723;51.194;5.112;2022-12-18T04:19:39;51.47;;;19.42;;
49828;SDS011;35723;51.194;5.112;2022-12-18T04:22:05;51.25;;;20.13;;
49828;SDS011;35723;51.194;5.112;2022-12-18T04:24:31;48.60;;;19.35;;
49828;SDS011;35723;51.194;5.112;2022-12-18T04:26:56;52.45;;;19.52;;
49828;SDS011;35723;51.194;5.112;2022-12-18T04:29:22;50.22;;;19.08;;
49828;SDS011;35723;51.194;5.112;2022-12-18T04:31:47;48.67;;;18.25;;
49828;SDS011;35723;51.194;5.112;2022-12-18T04:34:13;48.80;;;19.23;;
49828;SDS011;35723;51.194;5.112;2022-12-18T04:36:39;50.30;;;19.55;;
49828;SDS011;35723;51.194;5.112;2022-12-18T04:39:04;51.35;;;19.38;;
49828;SDS011;35723;51.194;5.112;2022-12-18T04:41:30;48.42;;;18.33;;
49828;SDS011;35723;51.194;5.112;2022-12-18T04:43:55;45.97;;;18.48;;
49828;SDS011;35723;51.194;5.112;2022-12-18T04:46:21;43.88;;;17.27;;
49828;SDS011;35723;51.194;5.112;2022-12-18T04:48:47;47.20;;;18.80;;
49828;SDS011;35723;51.194;5.112;2022-12-18T04:51:12;45.90;;;18.17;;
49828;SDS011;35723;51.194;5.112;2022-12-18T04:53:38;47.80;;;18.60;;
49828;SDS011;35723;51.194;5.112;2022-12-18T04:56:08;46.40;;;18.00;;
49828;SDS011;35723;51.194;5.112;2022-12-18T04:58:36;44.97;;;16.65;;
49828;SDS011;35723;51.194;5.112;2022-12-18T05:01:04;44.92;;;16.67;;
49828;SDS011;35723;51.194;5.112;2022-12-18T05:03:30;48.17;;;18.63;;
49828;SDS011;35723;51.194;5.112;2022-12-18T05:05:56;49.38;;;17.30;;
49828;SDS011;35723;51.194;5.112;2022-12-18T05:08:22;46.30;;;17.75;;
49828;SDS011;35723;51.194;5.112;2022-12-18T05:10:47;45.97;;;17.15;;
49828;SDS011;35723;51.194;5.112;2022-12-18T05:13:13;46.40;;;17.30;;
49828;SDS011;35723;51.194;5.112;2022-12-18T05:15:38;41.05;;;16.33;;
49828;SDS011;35723;51.194;5.112;2022-12-18T05:18:04;41.85;;;16.05;;
49828;SDS011;35723;51.194;5.112;2022-12-18T05:20:30;45.33;;;16.20;;
49828;SDS011;35723;51.194;5.112;2022-12-18T05:22:56;44.83;;;17.27;;
49828;SDS011;35723;51.194;5.112;2022-12-18T05:25:22;44.88;;;16.67;;
49828;SDS011;35723;51.194;5.112;2022-12-18T05:27:48;40.63;;;16.33;;
49828;SDS011;35723;51.194;5.112;2022-12-18T05:30:14;43.47;;;17.02;;
49828;SDS011;35723;51.194;5.112;2022-12-18T05:32:40;44.60;;;16.23;;
49828;SDS011;35723;51.194;5.112;2022-12-18T05:35:07;42.55;;;16.70;;
49828;SDS011;35723;51.194;5.112;2022-12-18T05:37:34;42.28;;;15.85;;
49828;SDS011;35723;51.194;5.112;2022-12-18T05:40:00;42.95;;;17.33;;
49828;SDS011;35723;51.194;5.112;2022-12-18T05:42:26;41.40;;;16.75;;
49828;SDS011;35723;51.194;5.112;2022-12-18T05:44:52;43.92;;;16.75;;
49828;SDS011;35723;51.194;5.112;2022-12-18T05:47:17;44.80;;;17.25;;
49828;SDS011;35723;51.194;5.112;2022-12-18T05:49:43;48.47;;;17.40;;
49828;SDS011;35723;51.194;5.112;2022-12-18T05:52:08;43.20;;;15.77;;
49828;SDS011;35723;51.194;5.112;2022-12-18T05:54:34;44.05;;;16.33;;
49828;SDS011;35723;51.194;5.112;2022-12-18T05:57:00;40.25;;;15.48;;
49828;SDS011;35723;51.194;5.112;2022-12-18T05:59:26;40.25;;;15.07;;
49828;SDS011;35723;51.194;5.112;2022-12-18T06:01:51;37.83;;;14.38;;
49828;SDS011;35723;51.194;5.112;2022-12-18T06:04:17;37.78;;;14.57;;
49828;SDS011;35723;51.194;5.112;2022-12-18T06:06:42;38.80;;;14.85;;
49828;SDS011;35723;51.194;5.112;2022-12-18T06:09:08;39.33;;;15.05;;
49828;SDS011;35723;51.194;5.112;2022-12-18T06:11:37;40.83;;;14.85;;
49828;SDS011;35723;51.194;5.112;2022-12-18T06:14:04;39.03;;;14.15;;
49828;SDS011;35723;51.194;5.112;2022-12-18T06:16:30;38.80;;;14.70;;
49828;SDS011;35723;51.194;5.112;2022-12-18T06:18:57;38.75;;;14.70;;
49828;SDS011;35723;51.194;5.112;2022-12-18T06:21:24;40.22;;;14.82;;
49828;SDS011;35723;51.194;5.112;2022-12-18T06:23:50;43.42;;;15.30;;
49828;SDS011;35723;51.194;5.112;2022-12-18T06:26:15;36.70;;;14.18;;
49828;SDS011;35723;51.194;5.112;2022-12-18T06:28:41;38.50;;;15.13;;
49828;SDS011;35723;51.194;5.112;2022-12-18T06:31:07;40.97;;;15.20;;
49828;SDS011;35723;51.194;5.112;2022-12-18T06:33:33;37.70;;;15.13;;
49828;SDS011;35723;51.194;5.112;2022-12-18T06:36:04;40.10;;;14.77;;
49828;SDS011;35723;51.194;5.112;2022-12-18T06:38:35;36.55;;;13.55;;
49828;SDS011;35723;51.194;5.112;2022-12-18T06:41:13;40.17;;;13.85;;
49828;SDS011;35723;51.194;5.112;2022-12-18T06:43:41;37.92;;;13.55;;
49828;SDS011;35723;51.194;5.112;2022-12-18T06:46:07;35.88;;;14.32;;
49828;SDS011;35723;51.194;5.112;2022-12-18T06:48:33;35.65;;;14.15;;
49828;SDS011;35723;51.194;5.112;2022-12-18T06:50:59;35.95;;;13.82;;
49828;SDS011;35723;51.194;5.112;2022-12-18T06:53:25;41.50;;;13.98;;
49828;SDS011;35723;51.194;5.112;2022-12-18T06:55:51;38.97;;;14.48;;
49828;SDS011;35723;51.194;5.112;2022-12-18T06:58:17;36.75;;;14.57;;
49828;SDS011;35723;51.194;5.112;2022-12-18T07:00:43;38.72;;;14.23;;
49828;SDS011;35723;51.194;5.112;2022-12-18T07:03:08;34.75;;;13.65;;
49828;SDS011;35723;51.194;5.112;2022-12-18T07:05:39;35.38;;;13.68;;
49828;SDS011;35723;51.194;5.112;2022-12-18T07:08:05;33.83;;;13.45;;
49828;SDS011;35723;51.194;5.112;2022-12-18T07:10:31;37.22;;;13.10;;
49828;SDS011;35723;51.194;5.112;2022-12-18T07:12:57;38.60;;;14.48;;
49828;SDS011;35723;51.194;5.112;2022-12-18T07:15:22;35.08;;;13.77;;
49828;SDS011;35723;51.194;5.112;2022-12-18T07:17:48;37.70;;;13.95;;
49828;SDS011;35723;51.194;5.112;2022-12-18T07:20:14;34.78;;;13.85;;
49828;SDS011;35723;51.194;5.112;2022-12-18T07:22:39;35.13;;;13.48;;
49828;SDS011;35723;51.194;5.112;2022-12-18T07:25:05;36.58;;;13.68;;
49828;SDS011;35723;51.194;5.112;2022-12-18T07:27:31;40.08;;;14.00;;
49828;SDS011;35723;51.194;5.112;2022-12-18T07:29:57;37.53;;;14.05;;
49828;SDS011;35723;51.194;5.112;2022-12-18T07:32:23;37.35;;;14.00;;
49828;SDS011;35723;51.194;5.112;2022-12-18T07:34:48;36.13;;;12.98;;
49828;SDS011;35723;51.194;5.112;2022-12-18T07:37:14;35.25;;;14.05;;
49828;SDS011;35723;51.194;5.112;2022-12-18T07:39:40;33.33;;;13.63;;
49828;SDS011;35723;51.194;5.112;2022-12-18T07:42:05;35.53;;;14.07;;
49828;SDS011;35723;51.194;5.112;2022-12-18T07:44:50;38.42;;;13.95;;
49828;SDS011;35723;51.194;5.112;2022-12-18T07:47:15;37.35;;;14.20;;
49828;SDS011;35723;51.194;5.112;2022-12-18T07:49:41;38.28;;;14.18;;
49828;SDS011;35723;51.194;5.112;2022-12-18T07:52:08;35.38;;;13.82;;
49828;SDS011;35723;51.194;5.112;2022-12-18T08:11:20;41.30;;;13.65;;
49828;SDS011;35723;51.194;5.112;2022-12-18T08:13:46;36.58;;;14.20;;
49828;SDS011;35723;51.194;5.112;2022-12-18T08:16:12;36.60;;;14.43;;
49828;SDS011;35723;51.194;5.112;2022-12-18T08:18:38;37.17;;;14.00;;
49828;SDS011;35723;51.194;5.112;2022-12-18T08:50:55;36.50;;;13.63;;
49828;SDS011;35723;51.194;5.112;2022-12-18T09:03:37;34.30;;;13.57;;
49828;SDS011;35723;51.194;5.112;2022-12-18T09:06:03;35.47;;;14.30;;
49828;SDS011;35723;51.194;5.112;2022-12-18T16:39:44;52.17;;;23.40;;
49828;SDS011;35723;51.194;5.112;2022-12-18T16:42:14;50.28;;;23.45;;
49828;SDS011;35723;51.194;5.112;2022-12-18T16:44:44;49.45;;;23.02;;
49828;SDS011;35723;51.194;5.112;2022-12-18T16:47:10;53.25;;;24.88;;
49828;SDS011;35723;51.194;5.112;2022-12-18T16:49:35;54.03;;;25.33;;
49828;SDS011;35723;51.194;5.112;2022-12-18T16:52:02;50.45;;;23.50;;
49828;SDS011;35723;51.194;5.112;2022-12-18T16:54:28;48.58;;;23.73;;
49828;SDS011;35723;51.194;5.112;2022-12-18T16:56:54;49.83;;;24.33;;
49828;SDS011;35723;51.194;5.112;2022-12-18T16:59:20;50.55;;;24.65;;
49828;SDS011;35723;51.194;5.112;2022-12-18T17:01:46;51.25;;;23.77;;
49828;SDS011;35723;51.194;5.112;2022-12-18T17:04:12;53.20;;;24.00;;
49828;SDS011;35723;51.194;5.112;2022-12-18T17:06:39;51.78;;;23.15;;
49828;SDS011;35723;51.194;5.112;2022-12-18T17:09:07;49.35;;;23.25;;
49828;SDS011;35723;51.194;5.112;2022-12-18T17:11:36;52.80;;;23.85;;
49828;SDS011;35723;51.194;5.112;2022-12-18T17:14:09;50.85;;;23.33;;
49828;SDS011;35723;51.194;5.112;2022-12-18T17:16:37;51.30;;;24.23;;
49828;SDS011;35723;51.194;5.112;2022-12-18T17:19:03;49.63;;;23.45;;
49828;SDS011;35723;51.194;5.112;2022-12-18T17:21:29;52.63;;;23.40;;
49828;SDS011;35723;51.194;5.112;2022-12-18T17:23:55;46.92;;;22.67;;
49828;SDS011;35723;51.194;5.112;2022-12-18T17:26:23;49.92;;;23.80;;
49828;SDS011;35723;51.194;5.112;2022-12-18T17:28:48;50.67;;;23.08;;
49828;SDS011;35723;51.194;5.112;2022-12-18T17:31:19;52.45;;;23.67;;
49828;SDS011;35723;51.194;5.112;2022-12-18T17:33:45;49.47;;;22.40;;
49828;SDS011;35723;51.194;5.112;2022-12-18T17:39:34;51.15;;;22.42;;
49828;SDS011;35723;51.194;5.112;2022-12-18T17:41:59;52.20;;;23.42;;
49828;SDS011;35723;51.194;5.112;2022-12-18T17:44:25;55.15;;;22.35;;
49828;SDS011;35723;51.194;5.112;2022-12-18T17:46:51;50.05;;;22.70;;
49828;SDS011;35723;51.194;5.112;2022-12-18T17:49:16;49.53;;;22.23;;
49828;SDS011;35723;51.194;5.112;2022-12-18T17:51:42;49.58;;;21.83;;
49828;SDS011;35723;51.194;5.112;2022-12-18T17:54:08;46.40;;;21.92;;
49828;SDS011;35723;51.194;5.112;2022-12-18T17:59:56;48.55;;;21.63;;
49828;SDS011;35723;51.194;5.112;2022-12-18T18:05:44;44.95;;;20.45;;
49828;SDS011;35723;51.194;5.112;2022-12-18T18:08:10;51.97;;;21.67;;
49828;SDS011;35723;51.194;5.112;2022-12-18T18:10:37;48.70;;;21.85;;
49828;SDS011;35723;51.194;5.112;2022-12-18T18:13:04;50.08;;;22.17;;
49828;SDS011;35723;51.194;5.112;2022-12-18T18:15:55;49.88;;;21.40;;
49828;SDS011;35723;51.194;5.112;2022-12-18T18:18:25;48.97;;;21.38;;
49828;SDS011;35723;51.194;5.112;2022-12-18T18:20:50;47.88;;;21.10;;
49828;SDS011;35723;51.194;5.112;2022-12-18T18:23:16;47.88;;;21.48;;
49828;SDS011;35723;51.194;5.112;2022-12-18T18:25:41;48.10;;;21.67;;
49828;SDS011;35723;51.194;5.112;2022-12-18T18:28:07;47.53;;;21.95;;
49828;SDS011;35723;51.194;5.112;2022-12-18T18:30:35;47.50;;;20.75;;
49828;SDS011;35723;51.194;5.112;2022-12-18T18:33:01;46.63;;;21.38;;
49828;SDS011;35723;51.194;5.112;2022-12-18T18:35:27;45.88;;;21.05;;
49828;SDS011;35723;51.194;5.112;2022-12-18T18:37:53;47.25;;;21.02;;
49828;SDS011;35723;51.194;5.112;2022-12-18T18:40:19;45.50;;;20.83;;
49828;SDS011;35723;51.194;5.112;2022-12-18T18:42:45;46.97;;;21.60;;
49828;SDS011;35723;51.194;5.112;2022-12-18T18:45:11;50.97;;;21.35;;
49828;SDS011;35723;51.194;5.112;2022-12-18T18:47:37;47.42;;;21.00;;
49828;SDS011;35723;51.194;5.112;2022-12-18T18:50:03;47.53;;;21.38;;
49828;SDS011;35723;51.194;5.112;2022-12-18T18:55:51;49.90;;;20.55;;
49828;SDS011;35723;51.194;5.112;2022-12-18T18:58:17;47.50;;;21.20;;
49828;SDS011;35723;51.194;5.112;2022-12-18T19:00:42;47.45;;;21.70;;
49828;SDS011;35723;51.194;5.112;2022-12-18T19:03:08;48.10;;;21.75;;
49828;SDS011;35723;51.194;5.112;2022-12-18T19:05:33;60.05;;;22.75;;
49828;SDS011;35723;51.194;5.112;2022-12-18T19:07:59;48.97;;;22.30;;
49828;SDS011;35723;51.194;5.112;2022-12-18T19:10:25;48.28;;;21.77;;
49828;SDS011;35723;51.194;5.112;2022-12-18T19:12:50;51.78;;;23.05;;
49828;SDS011;35723;51.194;5.112;2022-12-18T19:15:34;51.47;;;22.90;;
49828;SDS011;35723;51.194;5.112;2022-12-18T19:18:01;49.75;;;21.92;;
49828;SDS011;35723;51.194;5.112;2022-12-18T19:23:30;51.67;;;21.88;;
49828;SDS011;35723;51.194;5.112;2022-12-18T19:26:00;49.70;;;22.25;;
49828;SDS011;35723;51.194;5.112;2022-12-18T19:28:27;53.15;;;23.30;;
49828;SDS011;35723;51.194;5.112;2022-12-18T19:30:54;47.40;;;21.70;;
49828;SDS011;35723;51.194;5.112;2022-12-18T19:33:23;51.83;;;22.55;;
49828;SDS011;35723;51.194;5.112;2022-12-18T19:38:48;56.42;;;23.45;;
49828;SDS011;35723;51.194;5.112;2022-12-18T19:41:15;50.03;;;22.95;;
49828;SDS011;35723;51.194;5.112;2022-12-18T19:43:42;50.00;;;22.70;;
49828;SDS011;35723;51.194;5.112;2022-12-18T19:46:08;55.67;;;23.63;;
49828;SDS011;35723;51.194;5.112;2022-12-18T19:48:37;54.70;;;23.75;;
49828;SDS011;35723;51.194;5.112;2022-12-18T19:51:10;54.10;;;22.88;;
49828;SDS011;35723;51.194;5.112;2022-12-18T19:53:44;54.67;;;24.20;;
49828;SDS011;35723;51.194;5.112;2022-12-18T19:56:11;58.10;;;23.65;;
49828;SDS011;35723;51.194;5.112;2022-12-18T19:58:38;55.55;;;23.77;;
49828;SDS011;35723;51.194;5.112;2022-12-18T20:01:04;53.20;;;24.25;;
49828;SDS011;35723;51.194;5.112;2022-12-18T20:03:30;56.63;;;24.35;;
49828;SDS011;35723;51.194;5.112;2022-12-18T20:06:06;54.97;;;24.02;;
49828;SDS011;35723;51.194;5.112;2022-12-18T20:08:33;51.58;;;22.63;;
49828;SDS011;35723;51.194;5.112;2022-12-18T20:10:58;53.40;;;23.38;;
49828;SDS011;35723;51.194;5.112;2022-12-18T20:13:24;54.75;;;24.92;;
49828;SDS011;35723;51.194;5.112;2022-12-18T20:18:36;57.58;;;24.38;;
49828;SDS011;35723;51.194;5.112;2022-12-18T20:21:02;57.30;;;25.00;;
49828;SDS011;35723;51.194;5.112;2022-12-18T20:23:31;57.72;;;25.48;;
49828;SDS011;35723;51.194;5.112;2022-12-18T20:25:57;53.67;;;24.45;;
49828;SDS011;35723;51.194;5.112;2022-12-18T20:28:23;55.83;;;24.38;;
49828;SDS011;35723;51.194;5.112;2022-12-18T20:30:49;56.22;;;24.75;;
49828;SDS011;35723;51.194;5.112;2022-12-18T20:33:16;65.82;;;29.30;;
49828;SDS011;35723;51.194;5.112;2022-12-18T20:35:41;76.95;;;31.40;;
49828;SDS011;35723;51.194;5.112;2022-12-18T20:38:07;79.05;;;32.70;;
49828;SDS011;35723;51.194;5.112;2022-12-18T20:40:33;68.95;;;29.52;;
49828;SDS011;35723;51.194;5.112;2022-12-18T20:42:58;68.95;;;29.67;;
49828;SDS011;35723;51.194;5.112;2022-12-18T20:45:24;73.07;;;30.33;;
49828;SDS011;35723;51.194;5.112;2022-12-18T20:47:53;67.40;;;28.73;;
49828;SDS011;35723;51.194;5.112;2022-12-18T20:50:19;67.25;;;28.50;;
49828;SDS011;35723;51.194;5.112;2022-12-18T20:52:46;63.22;;;27.92;;
49828;SDS011;35723;51.194;5.112;2022-12-18T20:55:11;64.03;;;28.65;;
49828;SDS011;35723;51.194;5.112;2022-12-18T20:57:37;67.50;;;27.80;;
49828;SDS011;35723;51.194;5.112;2022-12-18T21:00:03;66.47;;;29.15;;
49828;SDS011;35723;51.194;5.112;2022-12-18T21:02:29;63.70;;;28.95;;
49828;SDS011;35723;51.194;5.112;2022-12-18T21:04:55;63.55;;;27.27;;
49828;SDS011;35723;51.194;5.112;2022-12-18T21:07:20;65.30;;;28.45;;
49828;SDS011;35723;51.194;5.112;2022-12-18T21:09:46;59.60;;;26.85;;
49828;SDS011;35723;51.194;5.112;2022-12-18T21:12:12;59.80;;;26.70;;
49828;SDS011;35723;51.194;5.112;2022-12-18T21:15:03;62.97;;;27.33;;
49828;SDS011;35723;51.194;5.112;2022-12-18T21:17:32;60.35;;;26.40;;
49828;SDS011;35723;51.194;5.112;2022-12-18T21:19:58;61.40;;;26.95;;
49828;SDS011;35723;51.194;5.112;2022-12-18T21:22:24;63.38;;;26.50;;
49828;SDS011;35723;51.194;5.112;2022-12-18T21:24:50;60.00;;;26.17;;
49828;SDS011;35723;51.194;5.112;2022-12-18T21:27:16;62.20;;;27.25;;
49828;SDS011;35723;51.194;5.112;2022-12-18T21:29:42;60.47;;;26.40;;
49828;SDS011;35723;51.194;5.112;2022-12-18T21:32:08;60.35;;;26.45;;
49828;SDS011;35723;51.194;5.112;2022-12-18T21:34:34;64.05;;;26.63;;
49828;SDS011;35723;51.194;5.112;2022-12-18T21:37:00;59.90;;;26.10;;
49828;SDS011;35723;51.194;5.112;2022-12-18T21:39:27;60.67;;;26.48;;
49828;SDS011;35723;51.194;5.112;2022-12-18T21:41:54;60.28;;;26.90;;
49828;SDS011;35723;51.194;5.112;2022-12-18T21:44:39;64.82;;;28.40;;
49828;SDS011;35723;51.194;5.112;2022-12-18T21:47:04;64.65;;;26.90;;
49828;SDS011;35723;51.194;5.112;2022-12-18T21:49:31;59.17;;;27.00;;
49828;SDS011;35723;51.194;5.112;2022-12-18T21:51:57;64.43;;;26.65;;
49828;SDS011;35723;51.194;5.112;2022-12-18T21:54:24;59.45;;;26.48;;
49828;SDS011;35723;51.194;5.112;2022-12-18T21:59:21;64.07;;;26.98;;
49828;SDS011;35723;51.194;5.112;2022-12-18T22:01:54;64.20;;;27.52;;
49828;SDS011;35723;51.194;5.112;2022-12-18T22:04:22;62.75;;;26.25;;
49828;SDS011;35723;51.194;5.112;2022-12-18T22:06:48;64.07;;;27.80;;
49828;SDS011;35723;51.194;5.112;2022-12-18T22:09:16;65.15;;;28.25;;
49828;SDS011;35723;51.194;5.112;2022-12-18T22:11:43;60.95;;;27.08;;
49828;SDS011;35723;51.194;5.112;2022-12-18T22:14:10;63.65;;;27.58;;
49828;SDS011;35723;51.194;5.112;2022-12-18T22:16:37;64.25;;;27.80;;
49828;SDS011;35723;51.194;5.112;2022-12-18T22:19:03;60.28;;;27.50;;
49828;SDS011;35723;51.194;5.112;2022-12-18T22:21:30;61.33;;;27.10;;
49828;SDS011;35723;51.194;5.112;2022-12-18T22:24:03;64.35;;;27.08;;
49828;SDS011;35723;51.194;5.112;2022-12-18T22:26:31;64.15;;;25.70;;
49828;SDS011;35723;51.194;5.112;2022-12-18T22:28:58;67.05;;;26.48;;
49828;SDS011;35723;51.194;5.112;2022-12-18T22:31:42;71.28;;;26.95;;
49828;SDS011;35723;51.194;5.112;2022-12-18T22:34:08;65.90;;;28.30;;
49828;SDS011;35723;51.194;5.112;2022-12-18T22:36:41;70.55;;;27.70;;
49828;SDS011;35723;51.194;5.112;2022-12-18T22:39:10;67.15;;;28.98;;
49828;SDS011;35723;51.194;5.112;2022-12-18T22:41:40;69.85;;;28.55;;
49828;SDS011;35723;51.194;5.112;2022-12-18T22:44:06;68.95;;;28.77;;
49828;SDS011;35723;51.194;5.112;2022-12-18T22:46:33;66.60;;;28.20;;
49828;SDS011;35723;51.194;5.112;2022-12-18T22:49:01;63.22;;;26.08;;
49828;SDS011;35723;51.194;5.112;2022-12-18T22:51:27;61.20;;;26.20;;
49828;SDS011;35723;51.194;5.112;2022-12-18T22:53:52;62.35;;;26.67;;
49828;SDS011;35723;51.194;5.112;2022-12-18T22:56:18;66.20;;;26.27;;
49828;SDS011;35723;51.194;5.112;2022-12-18T22:58:46;63.00;;;27.13;;
49828;SDS011;35723;51.194;5.112;2022-12-18T23:01:17;62.85;;;26.48;;
49828;SDS011;35723;51.194;5.112;2022-12-18T23:03:45;61.75;;;26.63;;
49828;SDS011;35723;51.194;5.112;2022-12-18T23:06:11;64.57;;;26.73;;
49828;SDS011;35723;51.194;5.112;2022-12-18T23:08:37;67.82;;;27.70;;
49828;SDS011;35723;51.194;5.112;2022-12-18T23:11:02;63.75;;;27.20;;
49828;SDS011;35723;51.194;5.112;2022-12-18T23:13:28;69.88;;;27.83;;
49828;SDS011;35723;51.194;5.112;2022-12-18T23:15:54;71.25;;;28.00;;
49828;SDS011;35723;51.194;5.112;2022-12-18T23:18:20;62.03;;;27.17;;
49828;SDS011;35723;51.194;5.112;2022-12-18T23:20:46;66.63;;;27.83;;
49828;SDS011;35723;51.194;5.112;2022-12-18T23:23:12;66.13;;;26.55;;
49828;SDS011;35723;51.194;5.112;2022-12-18T23:25:38;62.70;;;26.10;;
49828;SDS011;35723;51.194;5.112;2022-12-18T23:28:04;66.47;;;27.45;;
49828;SDS011;35723;51.194;5.112;2022-12-18T23:30:30;64.35;;;27.23;;
49828;SDS011;35723;51.194;5.112;2022-12-18T23:36:18;60.90;;;25.05;;
49828;SDS011;35723;51.194;5.112;2022-12-18T23:38:48;62.88;;;26.65;;
49828;SDS011;35723;51.194;5.112;2022-12-18T23:41:15;63.38;;;26.42;;
49828;SDS011;35723;51.194;5.112;2022-12-18T23:43:42;66.82;;;28.27;;
49828;SDS011;35723;51.194;5.112;2022-12-18T23:48:45;68.45;;;27.73;;
49828;SDS011;35723;51.194;5.112;2022-12-18T23:53:58;64.95;;;25.77;;
49828;SDS011;35723;51.194;5.112;2022-12-18T23:56:25;65.13;;;26.23;;
49828;SDS011;35723;51.194;5.112;2022-12-18T23:58:53;61.40;;;26.05;;
